createdAt,value
2022-10-19T00:01:07.142Z,75.96
2022-10-19T00:03:35.349Z,74.34
2022-10-19T00:06:14.516Z,75.33
2022-10-19T00:08:41.570Z,74.72
2022-10-19T00:11:08.078Z,74.97
2022-10-19T00:13:35.325Z,74.76
2022-10-19T00:16:02.578Z,74.85
2022-10-19T00:18:29.107Z,75.71
2022-10-19T00:21:03.404Z,76.02
2022-10-19T00:23:29.854Z,74.80
2022-10-19T00:25:57.450Z,73.80
2022-10-19T00:28:24.033Z,74.96
2022-10-19T00:30:50.584Z,74.10
2022-10-19T00:33:22.378Z,74.81
2022-10-19T00:35:51.029Z,74.87
2022-10-19T00:38:19.817Z,73.82
2022-10-19T00:40:49.802Z,74.30
2022-10-19T00:43:23.199Z,74.04
2022-10-19T00:45:50.463Z,74.04
2022-10-19T00:48:21.183Z,73.90
2022-10-19T00:50:51.501Z,73.72
2022-10-19T00:53:18.493Z,73.53
2022-10-19T00:55:46.442Z,74.31
2022-10-19T00:58:13.929Z,74.45
2022-10-19T01:00:40.676Z,74.92
2022-10-19T01:03:09.696Z,74.76
2022-10-19T01:05:36.832Z,74.53
2022-10-19T01:08:03.834Z,75.09
2022-10-19T01:10:37.114Z,75.97
2022-10-19T01:13:28.515Z,76.75
2022-10-19T01:16:04.996Z,75.95
2022-10-19T01:18:45.557Z,76.04
2022-10-19T01:21:20.855Z,75.44
2022-10-19T01:24:14.449Z,75.04
2022-10-19T01:27:15.702Z,75.78
2022-10-19T01:30:22.449Z,75.75
2022-10-19T01:33:05.933Z,75.45
2022-10-19T01:35:39.837Z,74.64
2022-10-19T01:38:31.388Z,74.89
2022-10-19T01:41:11.361Z,75.22
2022-10-19T01:43:53.026Z,75.05
2022-10-19T01:46:38.319Z,74.18
2022-10-19T01:49:15.527Z,75.11
2022-10-19T01:51:49.506Z,75.24
2022-10-19T01:54:18.060Z,74.51
2022-10-19T01:56:48.746Z,75.84
2022-10-19T01:59:19.084Z,76.03
2022-10-19T02:01:49.094Z,75.37
2022-10-19T02:04:18.897Z,75.12
2022-10-19T02:06:46.070Z,75.16
2022-10-19T02:09:18.142Z,75.04
2022-10-19T02:11:50.482Z,74.98
2022-10-19T02:14:24.671Z,74.85
2022-10-19T02:17:08.947Z,74.99
2022-10-19T02:19:36.074Z,74.94
2022-10-19T02:22:05.616Z,74.77
2022-10-19T02:24:34.559Z,75.62
2022-10-19T02:27:04.839Z,75.32
2022-10-19T02:29:33.225Z,75.81
2022-10-19T02:32:01.132Z,75.66
2022-10-19T02:34:28.040Z,75.59
2022-10-19T02:36:55.327Z,75.67
2022-10-19T02:39:22.526Z,75.83
2022-10-19T02:41:49.013Z,75.09
2022-10-19T02:44:22.955Z,75.53
2022-10-19T02:47:02.466Z,75.98
2022-10-19T02:49:30.689Z,75.94
2022-10-19T02:52:00.772Z,76.50
2022-10-19T02:54:28.253Z,76.69
2022-10-19T02:56:55.152Z,76.69
2022-10-19T02:59:21.829Z,77.30
2022-10-19T03:01:48.526Z,77.70
2022-10-19T03:04:15.692Z,77.16
2022-10-19T03:06:42.645Z,76.61
2022-10-19T03:09:09.331Z,75.91
2022-10-19T03:11:36.027Z,76.68
2022-10-19T03:14:02.638Z,75.80
2022-10-19T03:16:30.358Z,76.06
2022-10-19T03:18:57.224Z,76.13
2022-10-19T03:21:23.862Z,76.03
2022-10-19T03:23:50.503Z,76.01
2022-10-19T03:26:17.816Z,75.83
2022-10-19T03:28:44.559Z,76.54
2022-10-19T03:31:11.523Z,76.40
2022-10-19T03:33:38.479Z,76.14
2022-10-19T03:36:16.724Z,77.03
2022-10-19T03:38:43.960Z,76.46
2022-10-19T03:41:11.687Z,76.54
2022-10-19T03:43:38.186Z,76.80
2022-10-19T03:46:05.605Z,75.85
2022-10-19T03:48:33.607Z,76.02
2022-10-19T03:51:09.802Z,76.48
2022-10-19T03:53:36.773Z,77.27
2022-10-19T03:56:05.771Z,77.32
2022-10-19T03:58:34.964Z,77.32
2022-10-19T04:01:03.059Z,76.55
2022-10-19T04:03:29.684Z,76.73
2022-10-19T04:06:03.216Z,76.89
2022-10-19T04:08:30.029Z,77.16
2022-10-19T04:11:06.883Z,77.61
2022-10-19T04:13:34.682Z,76.91
2022-10-19T04:16:01.610Z,77.17
2022-10-19T04:18:28.272Z,77.29
2022-10-19T04:21:02.857Z,76.71
2022-10-19T04:23:31.783Z,76.83
2022-10-19T04:26:04.188Z,77.70
2022-10-19T04:28:31.799Z,76.69
2022-10-19T04:31:02.615Z,77.13
2022-10-19T04:33:29.341Z,77.56
2022-10-19T04:36:02.815Z,76.83
2022-10-19T04:38:29.897Z,77.39
2022-10-19T04:41:00.941Z,78.16
2022-10-19T04:43:27.539Z,77.93
2022-10-19T04:45:54.067Z,76.90
2022-10-19T04:48:20.649Z,77.86
2022-10-19T04:50:47.328Z,77.58
2022-10-19T04:53:14.092Z,77.53
2022-10-19T04:55:42.222Z,77.51
2022-10-19T04:58:09.185Z,77.17
2022-10-19T05:00:38.379Z,77.84
2022-10-19T05:03:05.153Z,77.85
2022-10-19T05:05:32.686Z,77.48
2022-10-19T05:07:59.183Z,77.52
2022-10-19T05:10:25.974Z,77.33
2022-10-19T05:12:54.674Z,77.43
2022-10-19T05:15:21.357Z,77.64
2022-10-19T05:17:47.992Z,77.13
2022-10-19T05:20:14.951Z,77.31
2022-10-19T05:22:42.116Z,77.39
2022-10-19T05:25:12.006Z,77.65
2022-10-19T05:27:38.746Z,77.25
2022-10-19T05:30:06.810Z,77.76
2022-10-19T05:32:33.509Z,77.26
2022-10-19T05:35:08.832Z,77.49
2022-10-19T05:37:38.392Z,77.37
2022-10-19T05:40:07.804Z,77.66
2022-10-19T05:42:34.732Z,78.29
2022-10-19T05:45:01.383Z,78.00
2022-10-19T05:47:38.704Z,76.58
2022-10-19T05:50:08.773Z,77.04
2022-10-19T05:52:39.529Z,76.83
2022-10-19T05:55:07.029Z,77.61
2022-10-19T05:57:39.287Z,77.92
2022-10-19T06:00:06.571Z,77.91
2022-10-19T06:02:38.282Z,77.94
2022-10-19T06:05:05.316Z,77.60
2022-10-19T06:07:36.508Z,78.08
2022-10-19T06:10:03.775Z,78.04
2022-10-19T06:12:30.665Z,78.17
2022-10-19T06:14:57.427Z,77.91
2022-10-19T06:17:26.820Z,77.27
2022-10-19T06:19:53.369Z,77.38
2022-10-19T06:22:19.861Z,77.67
2022-10-19T06:24:46.606Z,77.66
2022-10-19T06:27:13.480Z,77.52
2022-10-19T06:29:40.367Z,77.78
2022-10-19T06:32:10.436Z,78.54
2022-10-19T06:34:37.076Z,79.21
2022-10-19T06:37:03.679Z,79.25
2022-10-19T06:39:31.975Z,79.52
2022-10-19T06:41:58.902Z,79.85
2022-10-19T06:44:25.681Z,80.25
2022-10-19T06:46:54.135Z,81.22
2022-10-19T06:49:20.889Z,81.25
2022-10-19T06:51:47.532Z,81.63
2022-10-19T06:54:14.453Z,82.09
2022-10-19T06:56:41.443Z,83.11
2022-10-19T06:59:08.315Z,82.99
2022-10-19T07:01:35.208Z,83.32
2022-10-19T07:04:03.030Z,83.53
2022-10-19T07:06:34.074Z,83.76
2022-10-19T07:09:01.273Z,83.82
2022-10-19T07:11:28.417Z,84.46
2022-10-19T07:13:55.141Z,84.63
2022-10-19T07:16:22.678Z,84.85
2022-10-19T07:18:54.061Z,84.89
2022-10-19T07:21:24.469Z,85.21
2022-10-19T07:23:53.490Z,85.36
2022-10-19T07:26:27.848Z,85.57
2022-10-19T07:29:00.768Z,85.81
2022-10-19T07:31:34.220Z,85.56
2022-10-19T07:34:06.937Z,85.51
2022-10-19T07:36:37.852Z,85.88
2022-10-19T07:39:19.263Z,85.90
2022-10-19T07:41:48.279Z,85.89
2022-10-19T07:44:18.586Z,86.07
2022-10-19T07:47:03.849Z,85.89
2022-10-19T07:49:33.411Z,85.92
2022-10-19T07:52:16.097Z,86.16
2022-10-19T07:58:11.182Z,85.99
2022-10-19T08:00:37.744Z,86.04
2022-10-19T08:03:57.615Z,86.30
2022-10-19T08:06:04.809Z,85.85
2022-10-19T08:08:31.315Z,86.00
2022-10-19T08:10:58.568Z,86.68
2022-10-19T08:13:25.234Z,86.32
2022-10-19T08:15:51.757Z,86.14
2022-10-19T08:18:18.714Z,87.08
2022-10-19T08:20:45.289Z,86.95
2022-10-19T08:23:11.787Z,86.70
2022-10-19T08:25:38.341Z,86.42
2022-10-19T08:28:14.287Z,86.40
2022-10-19T08:30:48.002Z,86.66
2022-10-19T08:33:31.126Z,86.61
2022-10-19T08:36:23.200Z,86.61
2022-10-19T08:38:50.815Z,87.03
2022-10-19T08:41:54.823Z,87.16
2022-10-19T08:44:33.696Z,86.38
2022-10-19T08:47:18.495Z,86.82
2022-10-19T08:49:47.134Z,86.40
2022-10-19T08:52:24.226Z,86.45
2022-10-19T08:54:57.129Z,86.02
2022-10-19T08:57:50.746Z,86.04
2022-10-19T09:00:43.502Z,86.21
2022-10-19T09:03:31.913Z,86.16
2022-10-19T09:06:40.663Z,85.05
2022-10-19T09:09:13.364Z,84.94
2022-10-19T09:11:44.662Z,85.45
2022-10-19T09:14:18.562Z,86.05
2022-10-19T09:16:46.405Z,85.83
2022-10-19T09:19:22.883Z,85.60
2022-10-19T09:21:56.690Z,84.68
2022-10-19T09:24:36.071Z,85.54
2022-10-19T09:27:03.946Z,84.20
2022-10-19T09:29:45.445Z,85.46
2022-10-19T09:32:19.479Z,84.78
2022-10-19T09:34:52.200Z,83.61
2022-10-19T09:37:25.982Z,84.25
2022-10-19T09:39:54.858Z,84.30
2022-10-19T09:42:30.222Z,83.88
2022-10-19T09:45:00.282Z,84.33
2022-10-19T09:47:38.736Z,83.05
2022-10-19T09:50:07.601Z,83.97
2022-10-19T09:52:41.807Z,80.93
2022-10-19T09:55:16.909Z,81.75
2022-10-19T09:57:58.534Z,80.65
2022-10-19T10:00:33.032Z,81.07
2022-10-19T10:02:59.705Z,82.42
2022-10-19T10:05:40.972Z,79.79
2022-10-19T10:08:18.277Z,79.68
2022-10-19T10:10:48.053Z,82.53
2022-10-19T10:13:20.140Z,80.68
2022-10-19T10:15:54.531Z,80.80
2022-10-19T10:18:24.546Z,79.65
2022-10-19T10:21:03.911Z,72.98
2022-10-19T10:23:36.592Z,78.40
2022-10-19T10:26:04.775Z,75.99
2022-10-19T10:28:32.120Z,73.84
2022-10-19T10:31:03.462Z,75.30
2022-10-19T10:33:54.739Z,77.17
2022-10-19T10:36:25.150Z,73.33
2022-10-19T10:38:56.613Z,75.67
2022-10-19T10:41:24.989Z,72.73
2022-10-19T10:44:18.977Z,73.95
2022-10-19T10:46:59.458Z,74.96
2022-10-19T10:49:36.296Z,76.68
2022-10-19T10:52:11.941Z,75.81
2022-10-19T10:54:39.068Z,73.35
2022-10-19T10:57:15.627Z,72.79
2022-10-19T10:59:54.383Z,73.18
2022-10-19T11:02:50.390Z,70.51
2022-10-19T11:05:24.781Z,70.87
2022-10-19T11:07:59.376Z,72.78
2022-10-19T11:10:31.357Z,72.19
2022-10-19T11:13:19.728Z,71.30
2022-10-19T11:16:05.549Z,70.06
2022-10-19T11:18:45.283Z,71.33
2022-10-19T11:21:43.022Z,72.28
2022-10-19T11:24:43.871Z,70.37
2022-10-19T11:27:56.463Z,69.65
2022-10-19T11:30:24.944Z,72.03
2022-10-19T11:33:31.547Z,71.54
2022-10-19T11:36:02.390Z,70.42
2022-10-19T11:38:40.416Z,69.15
2022-10-19T11:41:30.879Z,70.29
2022-10-19T11:44:34.354Z,66.14
2022-10-19T11:47:29.841Z,66.91
2022-10-19T11:52:47.445Z,69.31
2022-10-19T11:55:51.491Z,68.90
2022-10-19T11:58:56.357Z,66.75
2022-10-19T12:01:35.115Z,67.31
2022-10-19T12:04:22.306Z,67.33
2022-10-19T12:07:27.829Z,64.78
2022-10-19T12:10:17.082Z,65.41
2022-10-19T12:12:50.165Z,66.12
2022-10-19T12:15:20.969Z,67.10
2022-10-19T12:17:51.916Z,66.15
2022-10-19T12:31:24.677Z,63.63
2022-10-19T12:34:07.444Z,62.42
2022-10-19T12:37:00.804Z,64.69
2022-10-19T12:40:00.378Z,61.62
2022-10-19T12:43:09.086Z,63.97
2022-10-19T12:45:52.601Z,64.58
2022-10-19T12:48:22.273Z,64.43
2022-10-19T12:51:19.421Z,64.19
2022-10-19T12:53:49.243Z,64.69
2022-10-19T12:56:26.914Z,63.21
2022-10-19T12:58:58.657Z,62.62
2022-10-19T13:01:57.673Z,63.84
2022-10-19T13:04:29.420Z,62.92
2022-10-19T13:07:05.336Z,63.76
2022-10-19T13:09:44.611Z,63.81
2022-10-19T13:12:34.936Z,62.90
2022-10-19T13:15:03.995Z,63.87
2022-10-19T13:17:45.343Z,62.32
2022-10-19T13:20:17.221Z,63.22
2022-10-19T13:23:26.353Z,63.28
2022-10-19T13:26:32.670Z,61.15
2022-10-19T13:28:59.994Z,62.81
2022-10-19T13:37:43.470Z,62.10
2022-10-19T13:40:24.444Z,62.63
2022-10-19T13:42:59.002Z,61.24
2022-10-19T13:45:27.723Z,60.67
2022-10-19T13:48:10.905Z,62.42
2022-10-19T13:50:52.096Z,61.41
2022-10-19T13:53:37.023Z,60.58
2022-10-19T13:56:31.855Z,61.87
2022-10-19T13:59:19.121Z,61.37
2022-10-19T14:02:25.235Z,60.48
2022-10-19T14:05:29.390Z,60.31
2022-10-19T14:08:33.487Z,59.83
2022-10-19T14:11:06.523Z,61.75
2022-10-19T14:13:36.951Z,61.66
2022-10-19T14:16:07.381Z,60.49
2022-10-19T14:18:39.361Z,61.53
2022-10-19T14:21:12.857Z,61.42
2022-10-19T14:23:40.583Z,61.23
2022-10-19T14:26:13.891Z,61.04
2022-10-19T14:28:44.969Z,61.36
2022-10-19T14:31:21.633Z,61.35
2022-10-19T14:34:13.056Z,60.28
2022-10-19T14:36:45.624Z,60.74
2022-10-19T14:39:30.686Z,60.70
2022-10-19T14:42:01.681Z,61.63
2022-10-19T14:44:37.845Z,61.05
2022-10-19T14:47:19.688Z,59.81
2022-10-19T14:49:47.633Z,61.20
2022-10-19T14:52:25.405Z,59.76
2022-10-19T14:54:55.099Z,61.13
2022-10-19T14:57:33.093Z,61.08
2022-10-19T15:00:03.966Z,61.14
2022-10-19T15:02:34.897Z,61.37
2022-10-19T15:05:04.892Z,61.58
2022-10-19T15:07:39.063Z,61.60
2022-10-19T15:10:09.012Z,61.71
2022-10-19T15:12:39.968Z,61.89
2022-10-19T15:15:36.916Z,60.81
2022-10-19T15:18:06.081Z,61.60
2022-10-19T15:20:49.623Z,61.38
2022-10-19T15:23:40.786Z,61.60
2022-10-19T15:26:44.593Z,60.95
2022-10-19T15:29:27.830Z,61.19
2022-10-19T15:32:50.448Z,60.70
2022-10-19T15:35:51.665Z,60.90
2022-10-19T15:38:27.344Z,61.26
2022-10-19T15:44:45.587Z,61.79
2022-10-19T15:47:38.604Z,62.00
2022-10-19T15:50:32.120Z,61.33
2022-10-19T15:53:02.207Z,62.27
2022-10-19T15:55:28.922Z,62.24
2022-10-19T15:57:58.932Z,62.28
2022-10-19T16:00:26.323Z,62.63
2022-10-19T16:02:53.056Z,62.16
2022-10-19T16:05:19.975Z,62.81
2022-10-19T16:07:49.625Z,62.65
2022-10-19T16:10:19.802Z,62.82
2022-10-19T16:12:46.959Z,62.58
2022-10-19T16:15:17.421Z,62.36
2022-10-19T16:17:47.907Z,62.85
2022-10-19T16:20:15.105Z,62.71
2022-10-19T16:22:42.762Z,63.19
2022-10-19T16:25:10.345Z,63.17
2022-10-19T16:27:37.365Z,62.99
2022-10-19T16:30:06.748Z,63.10
2022-10-19T16:32:36.800Z,63.26
2022-10-19T16:35:03.832Z,63.40
2022-10-19T16:37:30.627Z,63.44
2022-10-19T16:39:57.271Z,63.58
2022-10-19T16:42:29.721Z,63.26
2022-10-19T16:44:59.773Z,63.50
2022-10-19T16:47:26.748Z,63.61
2022-10-19T16:49:59.958Z,63.52
2022-10-19T16:52:28.127Z,63.97
2022-10-19T16:54:57.891Z,63.63
2022-10-19T16:57:24.700Z,63.84
2022-10-19T17:02:21.630Z,64.02
2022-10-19T17:04:48.330Z,63.96
2022-10-19T17:07:16.093Z,64.08
2022-10-19T17:09:44.037Z,64.20
2022-10-19T17:12:11.281Z,64.30
2022-10-19T17:14:40.492Z,64.47
2022-10-19T17:17:07.697Z,64.53
2022-10-19T17:19:35.746Z,64.73
2022-10-19T17:22:05.734Z,64.29
2022-10-19T17:24:32.560Z,64.82
2022-10-19T17:27:03.099Z,64.43
2022-10-19T17:29:30.353Z,64.80
2022-10-19T17:31:57.538Z,64.92
2022-10-19T17:34:24.531Z,64.68
2022-10-19T17:36:52.798Z,64.99
2022-10-19T17:39:25.801Z,64.63
2022-10-19T17:42:03.421Z,65.18
2022-10-19T17:44:31.680Z,65.31
2022-10-19T17:47:00.309Z,64.71
2022-10-19T17:49:27.096Z,65.25
2022-10-19T17:51:54.257Z,64.54
2022-10-19T17:54:22.853Z,64.93
2022-10-19T17:56:49.856Z,65.09
2022-10-19T17:59:16.763Z,65.49
2022-10-19T18:01:43.748Z,65.65
2022-10-19T18:04:11.582Z,65.20
2022-10-19T18:06:40.209Z,65.16
2022-10-19T18:09:09.241Z,65.19
2022-10-19T18:11:39.843Z,65.67
2022-10-19T18:14:08.426Z,65.26
2022-10-19T18:16:40.680Z,64.93
2022-10-19T18:22:12.679Z,64.98
2022-10-19T18:24:39.682Z,65.08
2022-10-19T18:27:07.926Z,65.33
2022-10-19T18:29:34.840Z,65.43
2022-10-19T18:32:01.804Z,65.52
2022-10-19T18:34:29.252Z,66.22
2022-10-19T18:36:57.279Z,65.57
2022-10-19T18:39:25.246Z,65.69
2022-10-19T18:41:54.623Z,66.07
2022-10-19T18:44:26.272Z,66.25
2022-10-19T18:46:54.339Z,66.07
2022-10-19T18:49:21.184Z,66.21
2022-10-19T18:51:55.323Z,66.08
2022-10-19T18:54:24.190Z,65.94
2022-10-19T18:56:51.009Z,65.98
2022-10-19T18:59:18.989Z,65.92
2022-10-19T19:01:45.972Z,66.33
2022-10-19T19:04:15.483Z,66.32
2022-10-19T19:06:43.295Z,65.93
2022-10-19T19:09:11.842Z,65.98
2022-10-19T19:11:41.207Z,66.07
2022-10-19T19:14:17.556Z,66.32
2022-10-19T19:16:45.922Z,66.03
2022-10-19T19:19:16.046Z,67.04
2022-10-19T19:21:57.356Z,66.69
2022-10-19T19:24:31.456Z,67.03
2022-10-19T19:27:00.468Z,66.28
2022-10-19T19:39:47.931Z,66.99
2022-10-19T19:42:16.441Z,67.15
2022-10-19T19:44:48.424Z,67.43
2022-10-19T19:47:15.224Z,67.50
2022-10-19T19:49:44.844Z,67.69
2022-10-19T19:52:11.445Z,67.47
2022-10-19T19:54:39.675Z,67.66
2022-10-19T19:57:08.241Z,67.31
2022-10-19T19:59:35.207Z,67.24
2022-10-19T20:02:01.973Z,67.58
2022-10-19T20:04:32.738Z,67.43
2022-10-19T20:06:59.475Z,66.73
2022-10-19T20:09:26.741Z,66.75
2022-10-19T20:11:53.591Z,67.43
2022-10-19T20:14:21.246Z,67.07
2022-10-19T20:16:49.480Z,66.11
2022-10-19T20:19:16.087Z,65.69
2022-10-19T20:21:43.329Z,65.57
2022-10-19T20:24:10.344Z,66.38
2022-10-19T20:26:39.384Z,66.05
2022-10-19T20:29:06.362Z,65.82
2022-10-19T20:31:40.004Z,66.36
2022-10-19T20:34:21.733Z,66.47
2022-10-19T20:36:50.507Z,67.12
2022-10-19T20:39:17.983Z,67.30
2022-10-19T20:41:49.027Z,66.25
2022-10-19T20:44:15.652Z,67.05
2022-10-19T20:46:42.207Z,66.79
2022-10-19T20:49:12.165Z,65.63
2022-10-19T20:51:39.227Z,66.56
2022-10-19T20:54:11.016Z,67.32
2022-10-19T20:56:39.476Z,65.29
2022-10-19T20:59:16.925Z,66.05
2022-10-19T21:01:44.977Z,65.59
2022-10-19T21:04:13.642Z,67.31
2022-10-19T21:06:43.518Z,65.77
2022-10-19T21:09:11.275Z,67.02
2022-10-19T21:11:41.497Z,65.93
2022-10-19T21:14:12.437Z,66.69
2022-10-19T21:16:42.330Z,65.88
2022-10-19T21:19:13.022Z,67.00
2022-10-19T21:21:42.528Z,65.79
2022-10-19T21:24:13.744Z,65.46
2022-10-19T21:26:41.553Z,65.70
2022-10-19T21:29:10.075Z,66.98
2022-10-19T21:31:44.065Z,65.82
2022-10-19T21:34:16.619Z,67.18
2022-10-19T21:36:43.525Z,66.88
2022-10-19T21:39:10.095Z,65.53
2022-10-19T21:41:36.901Z,66.27
2022-10-19T21:44:03.844Z,66.29
2022-10-19T21:46:30.417Z,65.34
2022-10-19T21:48:58.224Z,64.84
2022-10-19T21:51:41.068Z,65.90
2022-10-19T21:56:48.529Z,66.23
2022-10-19T21:59:15.757Z,66.90
2022-10-19T22:01:44.706Z,66.50
2022-10-19T22:04:16.195Z,66.96
2022-10-19T22:06:43.430Z,66.50
2022-10-19T22:09:13.586Z,67.66
2022-10-19T22:11:40.712Z,67.76
2022-10-19T22:14:07.354Z,67.91
2022-10-19T22:16:35.968Z,66.71
2022-10-19T22:19:05.154Z,66.96
2022-10-19T22:21:33.485Z,70.93
2022-10-19T22:24:06.925Z,68.25
2022-10-19T22:26:42.896Z,67.13
2022-10-19T22:29:10.342Z,67.83
2022-10-19T22:31:38.237Z,67.84
2022-10-19T22:34:08.022Z,69.17
2022-10-19T22:36:34.781Z,67.71
2022-10-19T22:39:01.444Z,68.21
2022-10-19T22:42:05.501Z,69.81
2022-10-19T22:44:32.667Z,69.12
2022-10-19T22:46:59.438Z,68.65
2022-10-19T22:49:25.987Z,69.26
2022-10-19T22:51:52.498Z,67.67
2022-10-19T22:54:19.023Z,68.57
2022-10-19T22:56:45.635Z,68.29
2022-10-19T22:59:12.297Z,67.85
2022-10-19T23:01:38.858Z,68.24
2022-10-19T23:04:05.596Z,69.36
2022-10-19T23:06:32.286Z,69.61
2022-10-19T23:08:58.995Z,68.97
2022-10-19T23:11:25.636Z,69.49
2022-10-19T23:13:52.144Z,69.40
2022-10-19T23:16:18.849Z,69.83
2022-10-19T23:18:45.553Z,71.87
2022-10-19T23:21:13.971Z,70.54
2022-10-19T23:23:41.004Z,70.17
2022-10-19T23:26:12.076Z,70.96
2022-10-19T23:28:40.708Z,69.81
2022-10-19T23:31:12.175Z,69.42
2022-10-19T23:33:39.709Z,70.09
2022-10-19T23:36:08.290Z,69.43
2022-10-19T23:38:35.798Z,71.73
2022-10-19T23:41:02.838Z,69.84
2022-10-19T23:43:30.095Z,69.93
2022-10-19T23:45:56.653Z,71.31
2022-10-19T23:48:23.217Z,72.33
2022-10-19T23:51:20.952Z,74.63
2022-10-19T23:53:50.249Z,70.60
2022-10-19T23:56:24.054Z,72.52
2022-10-19T23:58:51.796Z,71.31
